createdAt,value
2019-03-25T00:02:14.485Z,93.30
2019-03-25T00:04:51.767Z,93.30
2019-03-25T00:07:29.428Z,93.20
2019-03-25T00:10:06.719Z,93.20
2019-03-25T00:12:44.066Z,93.00
2019-03-25T00:15:21.380Z,92.90
2019-03-25T00:17:58.770Z,92.90
2019-03-25T00:20:36.104Z,92.90
2019-03-25T00:23:13.489Z,92.90
2019-03-25T00:25:50.765Z,92.70
2019-03-25T00:28:29.185Z,92.60
2019-03-25T00:31:06.414Z,92.60
2019-03-25T00:33:43.801Z,92.30
2019-03-25T00:36:21.097Z,92.30
2019-03-25T00:38:58.490Z,92.30
2019-03-25T00:41:35.821Z,92.30
2019-03-25T00:44:13.080Z,92.40
2019-03-25T00:46:50.360Z,92.40
2019-03-25T00:49:27.693Z,92.40
2019-03-25T00:52:04.922Z,92.50
2019-03-25T00:54:50.069Z,92.60
2019-03-25T00:57:21.061Z,92.60
2019-03-25T00:59:58.380Z,92.70
2019-03-25T01:02:35.700Z,92.70
2019-03-25T01:05:13.422Z,92.90
2019-03-25T01:07:50.610Z,92.90
2019-03-25T01:10:27.896Z,93.10
2019-03-25T01:13:05.174Z,93.00
2019-03-25T01:15:42.425Z,93.10
2019-03-25T01:18:19.728Z,93.20
2019-03-25T01:20:57.059Z,93.70
2019-03-25T01:23:34.344Z,93.50
2019-03-25T01:26:11.688Z,93.60
2019-03-25T01:28:48.972Z,93.70
2019-03-25T01:31:26.340Z,93.70
2019-03-25T01:34:03.517Z,93.70
2019-03-25T01:36:40.863Z,93.40
2019-03-25T01:39:18.147Z,93.30
2019-03-25T01:41:55.503Z,93.40
2019-03-25T01:44:32.595Z,93.20
2019-03-25T01:47:09.865Z,93.40
2019-03-25T01:49:47.036Z,93.30
2019-03-25T01:55:13.546Z,93.30
2019-03-25T01:57:46.182Z,93.40
2019-03-25T02:00:23.344Z,93.20
2019-03-25T02:03:00.584Z,93.30
2019-03-25T02:05:40.229Z,93.40
2019-03-25T02:08:17.455Z,93.60
2019-03-25T02:10:54.732Z,93.60
2019-03-25T02:13:32.080Z,93.60
2019-03-25T02:16:09.343Z,93.70
2019-03-25T02:18:46.680Z,93.90
2019-03-25T02:21:23.796Z,94.10
2019-03-25T02:24:01.125Z,94.40
2019-03-25T02:26:38.312Z,94.60
2019-03-25T02:29:15.628Z,94.70
2019-03-25T02:31:52.860Z,94.80
2019-03-25T02:34:33.609Z,94.90
2019-03-25T02:37:11.297Z,95.00
2019-03-25T02:39:48.635Z,95.00
2019-03-25T02:42:25.859Z,95.10
2019-03-25T02:45:03.410Z,95.20
2019-03-25T02:47:40.675Z,95.40
2019-03-25T02:50:17.915Z,95.50
2019-03-25T02:52:55.110Z,95.60
2019-03-25T02:55:41.402Z,95.90
2019-03-25T02:58:11.054Z,96.00
2019-03-25T03:00:51.139Z,96.10
2019-03-25T03:03:28.398Z,96.20
2019-03-25T03:06:05.883Z,96.30
2019-03-25T03:08:47.329Z,96.50
2019-03-25T03:11:22.540Z,96.60
2019-03-25T03:13:59.614Z,96.70
2019-03-25T03:16:37.036Z,96.80
2019-03-25T03:19:14.290Z,96.90
2019-03-25T03:21:51.776Z,97.00
2019-03-25T03:24:29.130Z,97.00
2019-03-25T03:27:06.309Z,96.90
2019-03-25T03:29:43.472Z,96.70
2019-03-25T03:32:20.754Z,96.60
2019-03-25T03:34:58.126Z,96.70
2019-03-25T03:37:35.471Z,96.80
2019-03-25T03:40:12.773Z,97.70
2019-03-25T03:42:50.166Z,97.50
2019-03-25T03:45:27.500Z,97.60
2019-03-25T03:48:04.717Z,97.90
2019-03-25T03:50:42.017Z,98.30
2019-03-25T03:53:19.369Z,98.50
2019-03-25T03:56:11.580Z,98.60
2019-03-25T03:58:35.403Z,98.60
2019-03-25T04:01:13.194Z,98.70
2019-03-25T04:03:50.526Z,98.60
2019-03-25T04:06:27.851Z,98.70
2019-03-25T04:09:06.367Z,98.50
2019-03-25T04:11:43.633Z,98.60
2019-03-25T04:14:20.999Z,98.40
2019-03-25T04:16:58.097Z,98.30
2019-03-25T04:19:35.402Z,98.20
2019-03-25T04:22:12.792Z,98.10
2019-03-25T04:24:50.000Z,98.00
2019-03-25T04:27:27.245Z,98.10
2019-03-25T04:30:04.860Z,97.90
2019-03-25T04:32:42.134Z,98.00
2019-03-25T04:35:19.509Z,97.90
2019-03-25T04:37:56.813Z,97.90
2019-03-25T04:40:34.173Z,97.70
2019-03-25T04:43:11.503Z,97.80
2019-03-25T04:45:48.869Z,97.80
2019-03-25T04:48:26.150Z,97.70
2019-03-25T04:51:03.519Z,97.60
2019-03-25T04:53:40.797Z,97.50
2019-03-25T04:56:18.138Z,97.30
2019-03-25T04:58:55.461Z,97.20
2019-03-25T05:01:32.853Z,97.10
2019-03-25T05:04:10.130Z,97.00
2019-03-25T05:06:47.490Z,96.90
2019-03-25T05:09:24.757Z,96.70
2019-03-25T05:12:02.108Z,96.60
2019-03-25T05:14:39.437Z,96.70
2019-03-25T05:17:16.774Z,96.60
2019-03-25T05:19:54.128Z,96.40
2019-03-25T05:22:31.471Z,96.30
2019-03-25T05:25:08.791Z,96.30
2019-03-25T05:27:46.097Z,96.20
2019-03-25T05:30:23.392Z,96.20
2019-03-25T05:33:02.297Z,96.20
2019-03-25T05:35:41.193Z,96.40
2019-03-25T05:38:19.088Z,96.30
2019-03-25T05:41:01.072Z,96.40
2019-03-25T05:43:43.578Z,96.30
2019-03-25T05:46:21.562Z,96.40
2019-03-25T05:49:00.072Z,96.40
2019-03-25T05:51:37.786Z,96.50
2019-03-25T05:54:15.380Z,96.50
2019-03-25T05:57:01.928Z,96.50
2019-03-25T05:59:34.054Z,96.50
2019-03-25T06:02:12.342Z,96.50
2019-03-25T06:04:51.648Z,96.40
2019-03-25T06:07:29.091Z,96.30
2019-03-25T06:10:06.954Z,96.20
2019-03-25T06:12:44.654Z,96.40
2019-03-25T06:15:22.502Z,96.20
2019-03-25T06:18:00.118Z,95.90
2019-03-25T06:20:41.203Z,95.80
2019-03-25T06:23:19.014Z,95.80
2019-03-25T06:25:56.855Z,95.80
2019-03-25T06:28:34.612Z,95.70
2019-03-25T06:31:12.151Z,95.40
2019-03-25T06:33:49.613Z,95.50
2019-03-25T06:36:27.218Z,95.20
2019-03-25T06:39:06.722Z,94.80
2019-03-25T06:41:49.644Z,94.20
2019-03-25T06:44:27.112Z,94.00
2019-03-25T06:47:04.729Z,93.30
2019-03-25T06:49:45.117Z,93.30
2019-03-25T06:52:41.436Z,92.60
2019-03-25T06:55:19.142Z,91.60
2019-03-25T06:57:56.717Z,91.40
2019-03-25T07:00:35.809Z,91.50
2019-03-25T07:03:13.834Z,91.30
2019-03-25T07:05:51.703Z,91.00
2019-03-25T07:08:29.385Z,90.70
2019-03-25T07:11:06.801Z,90.20
2019-03-25T07:13:47.428Z,90.10
2019-03-25T07:16:25.319Z,88.70
2019-03-25T07:19:03.354Z,88.40
2019-03-25T07:21:41.173Z,87.90
2019-03-25T07:24:19.292Z,87.70
2019-03-25T07:26:59.533Z,84.70
2019-03-25T07:29:37.182Z,84.40
2019-03-25T07:32:18.315Z,83.80
2019-03-25T07:34:55.882Z,83.80
2019-03-25T07:37:33.784Z,83.80
2019-03-25T07:40:15.915Z,83.10
2019-03-25T07:42:55.414Z,81.00
2019-03-25T07:45:33.163Z,81.60
2019-03-25T07:48:10.687Z,79.10
2019-03-25T07:58:54.858Z,79.00
2019-03-25T08:01:47.872Z,78.10
2019-03-25T08:04:31.939Z,77.20
2019-03-25T08:07:39.800Z,74.10
2019-03-25T08:10:52.746Z,73.90
2019-03-25T08:14:17.815Z,74.30
2019-03-25T08:21:49.329Z,69.50
2019-03-25T08:24:50.556Z,63.10
2019-03-25T08:27:22.743Z,64.60
2019-03-25T08:30:10.524Z,64.30
2019-03-25T08:32:49.573Z,63.60
2019-03-25T08:35:34.066Z,63.90
2019-03-25T08:38:11.851Z,62.20
2019-03-25T08:40:49.606Z,63.00
2019-03-25T08:43:28.214Z,61.30
2019-03-25T08:46:09.107Z,60.30
2019-03-25T08:48:47.716Z,58.60
2019-03-25T08:51:26.522Z,57.60
2019-03-25T08:54:04.018Z,58.10
2019-03-25T08:56:41.636Z,59.00
2019-03-25T08:59:18.908Z,60.10
2019-03-25T09:02:00.072Z,62.60
2019-03-25T09:04:37.613Z,65.30
2019-03-25T09:07:16.643Z,65.10
2019-03-25T09:09:55.251Z,65.20
2019-03-25T09:12:32.839Z,67.20
2019-03-25T09:15:11.317Z,69.30
2019-03-25T09:17:48.830Z,69.80
2019-03-25T09:20:26.215Z,70.30
2019-03-25T09:23:04.019Z,71.30
2019-03-25T09:25:43.348Z,70.80
2019-03-25T09:28:24.460Z,70.30
2019-03-25T09:31:03.108Z,70.40
2019-03-25T09:33:42.513Z,71.00
2019-03-25T09:36:20.080Z,70.30
2019-03-25T09:38:57.389Z,68.60
2019-03-25T09:41:34.684Z,70.00
2019-03-25T09:44:11.996Z,68.80
2019-03-25T09:46:49.286Z,67.90
2019-03-25T09:49:26.580Z,67.10
2019-03-25T09:52:03.882Z,67.90
2019-03-25T09:54:41.296Z,68.80
2019-03-25T09:57:19.544Z,67.30
2019-03-25T09:59:57.049Z,68.20
2019-03-25T10:02:34.332Z,66.90
2019-03-25T10:05:13.116Z,65.90
2019-03-25T10:07:50.663Z,66.00
2019-03-25T10:10:28.034Z,66.40
2019-03-25T10:13:06.017Z,67.10
2019-03-25T10:15:43.371Z,67.50
2019-03-25T10:18:20.660Z,65.40
2019-03-25T10:20:58.120Z,66.50
2019-03-25T10:23:35.495Z,63.60
2019-03-25T10:26:12.800Z,64.10
2019-03-25T10:28:50.120Z,59.30
2019-03-25T10:31:27.314Z,59.20
2019-03-25T10:34:04.640Z,58.90
2019-03-25T10:36:41.958Z,57.40
2019-03-25T10:39:20.080Z,57.30
2019-03-25T10:41:57.370Z,56.50
2019-03-25T10:44:34.700Z,60.10
2019-03-25T10:47:12.099Z,65.50
2019-03-25T10:49:49.408Z,63.30
2019-03-25T10:52:26.726Z,63.50
2019-03-25T10:55:07.586Z,59.70
2019-03-25T10:57:44.276Z,59.80
2019-03-25T11:00:21.710Z,60.20
2019-03-25T11:02:59.050Z,59.70
2019-03-25T11:05:36.387Z,58.80
2019-03-25T11:08:13.703Z,59.80
2019-03-25T11:10:51.071Z,63.60
2019-03-25T11:13:28.565Z,68.00
2019-03-25T11:16:05.895Z,71.90
2019-03-25T11:18:43.141Z,73.50
2019-03-25T11:21:20.402Z,75.30
2019-03-25T11:23:57.769Z,76.80
2019-03-25T11:26:35.033Z,76.70
2019-03-25T11:29:12.383Z,74.20
2019-03-25T11:31:51.897Z,77.50
2019-03-25T11:34:29.253Z,83.80
2019-03-25T11:37:06.564Z,86.50
2019-03-25T11:39:43.911Z,89.80
2019-03-25T11:42:21.190Z,92.80
2019-03-25T11:44:58.540Z,93.90
2019-03-25T11:47:35.816Z,95.20
2019-03-25T11:50:13.045Z,95.00
2019-03-25T11:52:50.321Z,96.10
2019-03-25T11:55:27.573Z,96.90
2019-03-25T11:58:04.765Z,97.90
2019-03-25T12:00:42.104Z,97.50
2019-03-25T12:03:19.394Z,98.10
2019-03-25T12:05:56.771Z,97.60
2019-03-25T12:08:34.043Z,97.20
2019-03-25T12:11:12.791Z,96.90
2019-03-25T12:13:54.278Z,96.70
2019-03-25T12:16:31.691Z,96.30
2019-03-25T12:19:09.166Z,96.80
2019-03-25T12:21:46.540Z,97.60
2019-03-25T12:24:23.834Z,97.70
2019-03-25T12:27:01.237Z,97.40
2019-03-25T12:29:38.503Z,97.60
2019-03-25T12:32:15.875Z,97.20
2019-03-25T12:34:53.188Z,97.90
2019-03-25T12:37:30.495Z,97.60
2019-03-25T12:40:08.073Z,95.90
2019-03-25T12:42:45.600Z,96.00
2019-03-25T12:45:22.904Z,95.40
2019-03-25T12:48:00.261Z,96.10
2019-03-25T12:50:37.523Z,96.80
2019-03-25T12:53:14.861Z,95.60
2019-03-25T12:55:52.044Z,95.80
2019-03-25T12:58:29.343Z,96.40
2019-03-25T13:01:06.617Z,96.00
2019-03-25T13:03:43.979Z,95.60
2019-03-25T13:06:21.231Z,95.30
2019-03-25T13:09:00.193Z,94.60
2019-03-25T13:11:37.504Z,95.90
2019-03-25T13:14:14.803Z,96.20
2019-03-25T13:16:52.085Z,96.70
2019-03-25T13:19:29.421Z,94.30
2019-03-25T13:22:06.640Z,94.10
2019-03-25T13:24:45.184Z,94.10
2019-03-25T13:27:22.464Z,93.30
2019-03-25T13:30:00.512Z,93.60
2019-03-25T13:32:42.412Z,94.10
2019-03-25T13:35:20.119Z,93.70
2019-03-25T13:37:58.995Z,92.20
2019-03-25T13:40:36.793Z,92.20
2019-03-25T13:43:14.226Z,93.00
2019-03-25T13:45:51.712Z,92.60
2019-03-25T13:48:29.130Z,93.80
2019-03-25T13:51:07.440Z,91.10
2019-03-25T13:53:44.828Z,92.10
2019-03-25T13:56:22.491Z,92.40
2019-03-25T13:59:00.079Z,92.30
2019-03-25T14:01:38.282Z,92.40
2019-03-25T14:04:16.268Z,91.40
2019-03-25T14:06:55.096Z,91.90
2019-03-25T14:09:32.850Z,91.60
2019-03-25T14:12:10.070Z,91.50
2019-03-25T14:14:47.413Z,92.00
2019-03-25T14:17:26.125Z,91.80
2019-03-25T14:20:06.732Z,92.20
2019-03-25T14:22:44.663Z,93.10
2019-03-25T14:25:21.989Z,94.80
2019-03-25T14:27:59.338Z,96.20
2019-03-25T14:30:36.574Z,96.80
2019-03-25T14:33:13.802Z,97.70
2019-03-25T14:35:53.368Z,99.90
2019-03-25T14:38:30.568Z,99.10
2019-03-25T14:41:07.842Z,99.90
2019-03-25T14:43:45.148Z,99.00
2019-03-25T14:46:22.461Z,97.80
2019-03-25T14:48:59.849Z,96.10
2019-03-25T14:51:37.118Z,94.40
2019-03-25T14:54:15.653Z,94.30
2019-03-25T14:56:57.417Z,94.00
2019-03-25T14:59:35.002Z,93.80
2019-03-25T15:02:12.277Z,94.60
2019-03-25T15:04:49.564Z,94.10
2019-03-25T15:07:26.875Z,93.70
2019-03-25T15:10:05.275Z,94.00
2019-03-25T15:12:42.431Z,93.20
2019-03-25T15:15:19.769Z,92.70
2019-03-25T15:17:57.206Z,92.80
2019-03-25T15:20:34.464Z,91.90
2019-03-25T15:23:11.760Z,91.20
2019-03-25T15:25:51.644Z,91.60
2019-03-25T15:28:30.348Z,91.40
2019-03-25T15:31:07.721Z,91.50
2019-03-25T15:33:45.007Z,91.80
2019-03-25T15:36:25.080Z,91.60
2019-03-25T15:39:02.589Z,91.50
2019-03-25T15:41:39.928Z,91.30
2019-03-25T15:44:17.213Z,90.60
2019-03-25T15:46:55.999Z,91.10
2019-03-25T15:49:35.505Z,90.50
2019-03-25T15:52:12.792Z,90.00
2019-03-25T15:54:50.155Z,90.90
2019-03-25T15:57:27.456Z,91.60
2019-03-25T16:00:10.777Z,92.50
2019-03-25T16:02:48.831Z,92.30
2019-03-25T16:05:26.745Z,92.70
2019-03-25T16:08:04.108Z,93.20
2019-03-25T16:10:41.738Z,93.90
2019-03-25T16:13:19.198Z,93.50
2019-03-25T16:15:56.597Z,93.10
2019-03-25T16:18:38.949Z,93.40
2019-03-25T16:21:17.588Z,92.80
2019-03-25T16:23:54.958Z,93.00
2019-03-25T16:26:32.559Z,92.20
2019-03-25T16:29:11.418Z,91.50
2019-03-25T16:31:48.743Z,91.20
2019-03-25T16:34:26.702Z,91.10
2019-03-25T16:37:07.124Z,91.30
2019-03-25T16:39:44.480Z,90.10
2019-03-25T16:42:24.620Z,90.40
2019-03-25T16:45:02.623Z,90.10
2019-03-25T16:47:40.477Z,88.60
2019-03-25T16:50:20.047Z,87.60
2019-03-25T16:52:57.406Z,87.60
2019-03-25T16:55:34.734Z,88.30
2019-03-25T16:58:12.030Z,89.80
2019-03-25T17:00:49.246Z,90.10
2019-03-25T17:03:26.763Z,90.10
2019-03-25T17:06:04.345Z,90.10
2019-03-25T17:08:41.636Z,90.40
2019-03-25T17:11:20.678Z,90.20
2019-03-25T17:13:57.958Z,90.70
2019-03-25T17:16:35.293Z,90.70
2019-03-25T17:19:12.556Z,91.00
2019-03-25T17:21:57.933Z,91.10
2019-03-25T17:24:28.884Z,91.10
2019-03-25T17:27:06.848Z,91.50
2019-03-25T17:29:46.641Z,91.80
2019-03-25T17:32:24.045Z,91.90
2019-03-25T17:35:01.301Z,92.60
2019-03-25T17:37:40.145Z,94.10
2019-03-25T17:40:17.598Z,95.30
2019-03-25T17:42:55.007Z,96.50
2019-03-25T17:45:34.330Z,97.10
2019-03-25T17:48:13.335Z,97.70
2019-03-25T17:50:52.858Z,98.10
2019-03-25T17:53:30.484Z,98.50
2019-03-25T17:56:08.410Z,99.00
2019-03-25T17:58:45.745Z,99.30
2019-03-25T18:01:32.247Z,99.50
2019-03-25T18:04:03.599Z,99.60
2019-03-25T18:06:41.344Z,99.70
2019-03-25T18:09:18.704Z,99.50
2019-03-25T18:11:58.169Z,99.50
2019-03-25T18:14:35.612Z,99.60
2019-03-25T18:17:13.916Z,99.80
2019-03-25T18:19:51.266Z,99.80
2019-03-25T18:22:39.288Z,99.80
2019-03-25T18:25:08.012Z,99.60
2019-03-25T18:27:45.303Z,99.60
2019-03-25T18:30:33.145Z,99.80
2019-03-25T18:33:11.797Z,99.90
2019-03-25T18:35:49.116Z,99.90
2019-03-25T18:38:26.429Z,99.90
2019-03-25T18:41:03.759Z,99.90
2019-03-25T18:43:41.081Z,99.90
2019-03-25T18:46:18.404Z,99.90
2019-03-25T18:48:55.554Z,99.90
2019-03-25T18:51:32.879Z,99.90
2019-03-25T18:54:10.197Z,99.90
2019-03-25T18:56:47.438Z,99.90
2019-03-25T18:59:24.792Z,99.90
2019-03-25T19:02:02.101Z,99.90
2019-03-25T19:04:40.297Z,99.90
2019-03-25T19:07:17.624Z,99.90
2019-03-25T19:09:54.934Z,99.90
2019-03-25T19:12:32.212Z,99.90
2019-03-25T19:15:09.494Z,99.90
2019-03-25T19:17:46.876Z,99.90
2019-03-25T19:20:24.149Z,99.90
2019-03-25T19:23:01.962Z,99.90
2019-03-25T19:25:41.030Z,99.90
2019-03-25T19:28:18.368Z,99.90
2019-03-25T19:30:55.536Z,99.90
2019-03-25T19:33:34.316Z,99.90
2019-03-25T19:36:11.677Z,99.90
2019-03-25T19:38:49.103Z,99.90
2019-03-25T19:41:32.620Z,99.90
2019-03-25T19:44:05.276Z,99.90
2019-03-25T19:46:42.923Z,99.90
2019-03-25T19:49:20.253Z,99.90
2019-03-25T19:51:57.586Z,99.90
2019-03-25T19:54:34.916Z,99.90
2019-03-25T19:57:12.350Z,99.90
2019-03-25T19:59:49.787Z,99.90
2019-03-25T20:02:29.566Z,99.90
2019-03-25T20:05:08.290Z,99.90
2019-03-25T20:07:45.585Z,99.90
2019-03-25T20:10:33.904Z,99.90
2019-03-25T20:13:11.336Z,99.90
2019-03-25T20:15:48.746Z,99.90
2019-03-25T20:18:26.041Z,99.90
2019-03-25T20:21:03.417Z,99.90
2019-03-25T20:23:40.757Z,99.90
2019-03-25T20:26:19.249Z,99.90
2019-03-25T20:28:56.702Z,99.90
2019-03-25T20:31:35.244Z,99.90
2019-03-25T20:34:12.576Z,99.90
2019-03-25T20:36:49.949Z,99.90
2019-03-25T20:39:27.575Z,99.90
2019-03-25T20:42:05.001Z,99.90
2019-03-25T20:44:42.466Z,99.90
2019-03-25T20:47:21.174Z,99.90
2019-03-25T20:49:58.618Z,99.90
2019-03-25T20:52:36.033Z,99.90
2019-03-25T20:55:13.457Z,99.90
2019-03-25T20:57:50.760Z,99.90
2019-03-25T21:00:49.328Z,99.90
2019-03-25T21:03:26.722Z,99.90
2019-03-25T21:06:04.229Z,99.90
2019-03-25T21:08:41.773Z,99.90
2019-03-25T21:11:19.058Z,99.90
2019-03-25T21:13:56.525Z,99.90
2019-03-25T21:16:34.019Z,99.90
2019-03-25T21:19:11.360Z,99.90
2019-03-25T21:21:49.297Z,99.90
2019-03-25T21:24:26.641Z,99.90
2019-03-25T21:27:04.120Z,99.90
2019-03-25T21:29:41.748Z,99.90
2019-03-25T21:32:19.187Z,99.90
2019-03-25T21:34:56.582Z,99.90
2019-03-25T21:37:33.958Z,99.90
2019-03-25T21:40:11.386Z,99.90
2019-03-25T21:42:48.871Z,99.90
2019-03-25T21:45:26.206Z,99.90
2019-03-25T21:48:04.689Z,99.90
2019-03-25T21:50:41.902Z,99.90
2019-03-25T21:53:19.216Z,99.90
2019-03-25T21:55:56.634Z,99.90
2019-03-25T21:58:33.899Z,99.90
2019-03-25T22:01:14.244Z,99.90
2019-03-25T22:04:10.551Z,99.90
2019-03-25T22:07:08.072Z,99.90
2019-03-25T22:09:42.959Z,99.90
2019-03-25T22:12:32.584Z,99.90
2019-03-25T22:15:21.500Z,99.90
2019-03-25T22:18:18.050Z,99.90
2019-03-25T22:21:04.670Z,99.90
2019-03-25T22:23:53.883Z,99.90
2019-03-25T22:27:02.673Z,99.90
2019-03-25T22:29:42.789Z,99.90
2019-03-25T22:32:37.727Z,99.90
2019-03-25T22:35:22.630Z,99.90
2019-03-25T22:38:05.886Z,99.90
2019-03-25T22:40:50.347Z,99.90
2019-03-25T22:43:35.584Z,99.90
2019-03-25T22:46:26.149Z,99.90
2019-03-25T22:49:03.792Z,99.90
2019-03-25T22:51:59.897Z,99.90
2019-03-25T22:54:37.140Z,99.90
2019-03-25T22:57:24.582Z,99.90
2019-03-25T23:00:13.097Z,99.90
2019-03-25T23:02:58.880Z,99.90
2019-03-25T23:06:01.401Z,99.90
2019-03-25T23:08:52.515Z,99.90
2019-03-25T23:11:51.918Z,99.90
2019-03-25T23:14:36.875Z,99.90
2019-03-25T23:17:45.963Z,99.90
2019-03-25T23:20:24.480Z,99.90
2019-03-25T23:23:20.547Z,99.90
2019-03-25T23:26:04.544Z,99.90
2019-03-25T23:28:51.537Z,99.90
2019-03-25T23:31:44.908Z,99.90
2019-03-25T23:34:33.821Z,99.90
2019-03-25T23:37:12.990Z,99.90
2019-03-25T23:40:06.822Z,99.90
2019-03-25T23:42:47.723Z,99.90
2019-03-25T23:45:30.994Z,99.90
2019-03-25T23:48:24.155Z,99.90
2019-03-25T23:51:05.887Z,99.90
2019-03-25T23:54:00.677Z,99.90
2019-03-25T23:56:46.224Z,99.90
2019-03-25T23:59:30.396Z,99.90
